sensor_id;sensor_type;location;lat;lon;timestamp;pressure;altitude;pressure_sealevel;temperature;humidity
69223;BME280;56514;51.816;-0.026;2022-10-16T00:02:42;99961.88;;;13.37;66.46
69223;BME280;56514;51.816;-0.026;2022-10-16T00:05:27;99957.13;;;13.31;66.90
69223;BME280;56514;51.816;-0.026;2022-10-16T00:08:13;99966.91;;;13.21;66.98
69223;BME280;56514;51.816;-0.026;2022-10-16T00:13:51;99971.06;;;13.42;66.83
69223;BME280;56514;51.816;-0.026;2022-10-16T00:16:37;99973.44;;;13.45;66.71
69223;BME280;56514;51.816;-0.026;2022-10-16T00:19:22;99971.63;;;13.46;66.46
69223;BME280;56514;51.816;-0.026;2022-10-16T00:22:07;99974.84;;;13.49;66.47
69223;BME280;56514;51.816;-0.026;2022-10-16T00:24:52;99974.69;;;13.41;66.33
69223;BME280;56514;51.816;-0.026;2022-10-16T00:27:37;99963.09;;;13.42;66.33
69223;BME280;56514;51.816;-0.026;2022-10-16T00:30:22;99973.84;;;13.41;66.34
69223;BME280;56514;51.816;-0.026;2022-10-16T00:33:07;99977.47;;;13.40;66.49
69223;BME280;56514;51.816;-0.026;2022-10-16T00:35:52;99966.59;;;13.43;65.87
69223;BME280;56514;51.816;-0.026;2022-10-16T00:38:37;99979.16;;;13.60;65.20
69223;BME280;56514;51.816;-0.026;2022-10-16T00:41:24;99973.56;;;13.53;65.23
69223;BME280;56514;51.816;-0.026;2022-10-16T00:44:44;99978.03;;;13.62;64.29
69223;BME280;56514;51.816;-0.026;2022-10-16T00:47:30;99981.38;;;13.55;64.31
69223;BME280;56514;51.816;-0.026;2022-10-16T00:53:05;99980.28;;;13.48;63.96
69223;BME280;56514;51.816;-0.026;2022-10-16T00:55:50;99980.81;;;13.61;63.47
69223;BME280;56514;51.816;-0.026;2022-10-16T00:58:36;99989.31;;;13.64;63.15
69223;BME280;56514;51.816;-0.026;2022-10-16T01:01:21;99989.75;;;13.69;63.33
69223;BME280;56514;51.816;-0.026;2022-10-16T01:04:06;99988.75;;;13.61;63.42
69223;BME280;56514;51.816;-0.026;2022-10-16T01:10:20;99990.75;;;13.59;63.63
69223;BME280;56514;51.816;-0.026;2022-10-16T01:13:12;99993.66;;;13.56;63.61
69223;BME280;56514;51.816;-0.026;2022-10-16T01:16:10;99996.03;;;13.40;64.10
69223;BME280;56514;51.816;-0.026;2022-10-16T01:19:06;99988.06;;;13.30;64.80
69223;BME280;56514;51.816;-0.026;2022-10-16T01:21:54;99984.72;;;13.38;64.42
69223;BME280;56514;51.816;-0.026;2022-10-16T01:24:46;99993.94;;;13.43;64.81
69223;BME280;56514;51.816;-0.026;2022-10-16T01:27:35;99997.81;;;13.39;64.50
69223;BME280;56514;51.816;-0.026;2022-10-16T01:30:28;99993.50;;;13.38;64.97
69223;BME280;56514;51.816;-0.026;2022-10-16T01:33:20;99990.19;;;13.27;65.39
69223;BME280;56514;51.816;-0.026;2022-10-16T01:36:14;99989.34;;;13.26;65.99
69223;BME280;56514;51.816;-0.026;2022-10-16T01:39:02;100005.09;;;13.28;65.92
69223;BME280;56514;51.816;-0.026;2022-10-16T01:41:55;100014.69;;;13.29;65.94
69223;BME280;56514;51.816;-0.026;2022-10-16T01:44:46;100018.19;;;13.29;66.22
69223;BME280;56514;51.816;-0.026;2022-10-16T01:47:33;100010.22;;;13.20;66.67
69223;BME280;56514;51.816;-0.026;2022-10-16T01:50:21;100011.91;;;13.21;66.72
69223;BME280;56514;51.816;-0.026;2022-10-16T01:53:08;100010.81;;;13.23;66.66
69223;BME280;56514;51.816;-0.026;2022-10-16T01:55:57;100013.44;;;13.23;66.67
69223;BME280;56514;51.816;-0.026;2022-10-16T01:58:50;100004.38;;;13.35;66.33
69223;BME280;56514;51.816;-0.026;2022-10-16T02:01:39;100002.03;;;13.42;65.92
69223;BME280;56514;51.816;-0.026;2022-10-16T02:04:33;100002.75;;;13.44;65.58
69223;BME280;56514;51.816;-0.026;2022-10-16T02:07:20;100007.06;;;13.54;65.02
69223;BME280;56514;51.816;-0.026;2022-10-16T02:10:06;100010.28;;;13.48;65.35
69223;BME280;56514;51.816;-0.026;2022-10-16T02:13:00;100012.75;;;13.59;64.73
69223;BME280;56514;51.816;-0.026;2022-10-16T02:15:47;99999.50;;;13.69;63.71
69223;BME280;56514;51.816;-0.026;2022-10-16T02:18:32;100021.53;;;13.60;64.17
69223;BME280;56514;51.816;-0.026;2022-10-16T02:30:38;100046.94;;;13.53;63.47
69223;BME280;56514;51.816;-0.026;2022-10-16T02:33:26;100036.19;;;13.54;62.92
69223;BME280;56514;51.816;-0.026;2022-10-16T02:36:13;100037.84;;;13.46;63.24
69223;BME280;56514;51.816;-0.026;2022-10-16T02:38:58;100041.34;;;13.37;63.42
69223;BME280;56514;51.816;-0.026;2022-10-16T02:41:46;100048.03;;;13.31;63.37
69223;BME280;56514;51.816;-0.026;2022-10-16T02:44:30;100053.63;;;13.28;63.39
69223;BME280;56514;51.816;-0.026;2022-10-16T02:47:15;100058.34;;;13.25;63.66
69223;BME280;56514;51.816;-0.026;2022-10-16T02:50:01;100054.13;;;13.13;64.16
69223;BME280;56514;51.816;-0.026;2022-10-16T02:52:46;100061.63;;;13.08;64.41
69223;BME280;56514;51.816;-0.026;2022-10-16T02:55:31;100080.44;;;13.05;64.97
69223;BME280;56514;51.816;-0.026;2022-10-16T02:58:16;100077.47;;;12.98;65.38
69223;BME280;56514;51.816;-0.026;2022-10-16T03:01:01;100073.00;;;12.99;65.43
69223;BME280;56514;51.816;-0.026;2022-10-16T03:03:46;100075.94;;;12.96;65.61
69223;BME280;56514;51.816;-0.026;2022-10-16T03:06:31;100076.47;;;12.90;65.68
69223;BME280;56514;51.816;-0.026;2022-10-16T03:09:16;100075.75;;;12.88;66.14
69223;BME280;56514;51.816;-0.026;2022-10-16T03:12:00;100080.38;;;12.86;66.16
69223;BME280;56514;51.816;-0.026;2022-10-16T03:14:45;100088.91;;;12.99;65.71
69223;BME280;56514;51.816;-0.026;2022-10-16T03:17:31;100095.84;;;12.90;65.76
69223;BME280;56514;51.816;-0.026;2022-10-16T03:20:16;100095.00;;;12.90;65.56
69223;BME280;56514;51.816;-0.026;2022-10-16T03:23:01;100097.88;;;12.77;65.80
69223;BME280;56514;51.816;-0.026;2022-10-16T03:25:47;100100.22;;;12.71;66.12
69223;BME280;56514;51.816;-0.026;2022-10-16T03:28:32;100101.56;;;12.65;66.33
69223;BME280;56514;51.816;-0.026;2022-10-16T03:31:18;100103.97;;;12.68;65.90
69223;BME280;56514;51.816;-0.026;2022-10-16T03:34:03;100124.06;;;12.80;65.70
69223;BME280;56514;51.816;-0.026;2022-10-16T03:36:48;100125.22;;;12.87;64.88
69223;BME280;56514;51.816;-0.026;2022-10-16T03:39:32;100130.22;;;12.81;65.24
69223;BME280;56514;51.816;-0.026;2022-10-16T03:42:24;100132.50;;;12.65;65.17
69223;BME280;56514;51.816;-0.026;2022-10-16T03:45:09;100136.97;;;12.64;65.36
69223;BME280;56514;51.816;-0.026;2022-10-16T03:47:54;100145.63;;;12.76;64.74
69223;BME280;56514;51.816;-0.026;2022-10-16T03:50:39;100138.41;;;12.78;64.63
69223;BME280;56514;51.816;-0.026;2022-10-16T03:53:24;100146.34;;;12.78;64.80
69223;BME280;56514;51.816;-0.026;2022-10-16T03:56:09;100148.34;;;12.85;64.15
69223;BME280;56514;51.816;-0.026;2022-10-16T03:58:54;100162.50;;;12.75;64.74
69223;BME280;56514;51.816;-0.026;2022-10-16T04:01:39;100160.13;;;12.72;65.12
69223;BME280;56514;51.816;-0.026;2022-10-16T04:04:24;100158.25;;;12.63;65.38
69223;BME280;56514;51.816;-0.026;2022-10-16T04:07:09;100164.34;;;12.54;65.64
69223;BME280;56514;51.816;-0.026;2022-10-16T04:09:54;100161.69;;;12.54;65.65
69223;BME280;56514;51.816;-0.026;2022-10-16T04:12:39;100172.13;;;12.55;65.73
69223;BME280;56514;51.816;-0.026;2022-10-16T04:15:24;100175.72;;;12.54;65.69
69223;BME280;56514;51.816;-0.026;2022-10-16T04:18:09;100178.41;;;12.33;66.61
69223;BME280;56514;51.816;-0.026;2022-10-16T04:20:54;100193.28;;;12.34;66.69
69223;BME280;56514;51.816;-0.026;2022-10-16T04:23:39;100198.19;;;12.39;66.86
69223;BME280;56514;51.816;-0.026;2022-10-16T04:26:24;100199.16;;;12.38;67.24
69223;BME280;56514;51.816;-0.026;2022-10-16T04:29:09;100213.03;;;12.30;67.24
69223;BME280;56514;51.816;-0.026;2022-10-16T04:31:54;100215.63;;;12.42;67.24
69223;BME280;56514;51.816;-0.026;2022-10-16T04:34:41;100209.03;;;12.36;67.69
69223;BME280;56514;51.816;-0.026;2022-10-16T04:37:27;100221.59;;;12.23;68.23
69223;BME280;56514;51.816;-0.026;2022-10-16T04:40:12;100228.31;;;12.27;68.07
69223;BME280;56514;51.816;-0.026;2022-10-16T04:42:57;100223.13;;;12.25;68.15
69223;BME280;56514;51.816;-0.026;2022-10-16T04:45:42;100230.03;;;12.17;68.73
69223;BME280;56514;51.816;-0.026;2022-10-16T04:48:27;100238.91;;;12.16;68.81
69223;BME280;56514;51.816;-0.026;2022-10-16T04:51:12;100247.94;;;12.13;69.51
69223;BME280;56514;51.816;-0.026;2022-10-16T04:53:57;100256.50;;;12.06;69.35
69223;BME280;56514;51.816;-0.026;2022-10-16T04:56:42;100271.53;;;12.05;69.33
69223;BME280;56514;51.816;-0.026;2022-10-16T04:59:31;100272.88;;;12.00;69.65
69223;BME280;56514;51.816;-0.026;2022-10-16T05:02:17;100274.66;;;11.99;69.81
69223;BME280;56514;51.816;-0.026;2022-10-16T05:05:01;100278.75;;;12.03;69.85
69223;BME280;56514;51.816;-0.026;2022-10-16T05:07:47;100297.38;;;12.02;69.77
69223;BME280;56514;51.816;-0.026;2022-10-16T05:10:32;100297.63;;;11.99;69.88
69223;BME280;56514;51.816;-0.026;2022-10-16T05:13:19;100305.94;;;11.94;70.08
69223;BME280;56514;51.816;-0.026;2022-10-16T05:16:04;100301.81;;;12.01;69.75
69223;BME280;56514;51.816;-0.026;2022-10-16T05:18:51;100302.06;;;11.98;69.92
69223;BME280;56514;51.816;-0.026;2022-10-16T05:21:36;100307.72;;;12.05;69.81
69223;BME280;56514;51.816;-0.026;2022-10-16T05:24:21;100317.31;;;11.95;70.00
69223;BME280;56514;51.816;-0.026;2022-10-16T05:27:06;100329.13;;;11.91;70.27
69223;BME280;56514;51.816;-0.026;2022-10-16T05:29:52;100321.06;;;11.81;70.65
69223;BME280;56514;51.816;-0.026;2022-10-16T05:32:37;100333.22;;;11.73;70.59
69223;BME280;56514;51.816;-0.026;2022-10-16T05:35:22;100343.19;;;11.69;70.88
69223;BME280;56514;51.816;-0.026;2022-10-16T05:38:07;100349.44;;;11.68;71.13
69223;BME280;56514;51.816;-0.026;2022-10-16T05:40:52;100348.72;;;11.66;70.94
69223;BME280;56514;51.816;-0.026;2022-10-16T05:43:37;100350.00;;;11.72;70.79
69223;BME280;56514;51.816;-0.026;2022-10-16T05:46:22;100354.84;;;11.67;70.55
69223;BME280;56514;51.816;-0.026;2022-10-16T05:49:07;100356.50;;;11.68;70.54
69223;BME280;56514;51.816;-0.026;2022-10-16T05:51:51;100362.03;;;11.65;70.71
69223;BME280;56514;51.816;-0.026;2022-10-16T05:54:36;100368.41;;;11.62;70.83
69223;BME280;56514;51.816;-0.026;2022-10-16T05:57:21;100376.34;;;11.62;70.61
69223;BME280;56514;51.816;-0.026;2022-10-16T06:00:07;100370.28;;;11.49;70.74
69223;BME280;56514;51.816;-0.026;2022-10-16T06:02:52;100375.78;;;11.46;70.95
69223;BME280;56514;51.816;-0.026;2022-10-16T06:05:37;100380.47;;;11.43;70.97
69223;BME280;56514;51.816;-0.026;2022-10-16T06:08:23;100382.28;;;11.42;70.99
69223;BME280;56514;51.816;-0.026;2022-10-16T06:11:10;100386.94;;;11.39;71.00
69223;BME280;56514;51.816;-0.026;2022-10-16T06:13:57;100397.25;;;11.31;71.16
69223;BME280;56514;51.816;-0.026;2022-10-16T06:16:43;100393.63;;;11.21;71.06
69223;BME280;56514;51.816;-0.026;2022-10-16T06:19:27;100398.41;;;11.16;70.97
69223;BME280;56514;51.816;-0.026;2022-10-16T06:22:13;100406.78;;;11.10;71.24
69223;BME280;56514;51.816;-0.026;2022-10-16T06:24:58;100416.75;;;11.06;70.97
69223;BME280;56514;51.816;-0.026;2022-10-16T06:27:43;100421.53;;;11.01;71.68
69223;BME280;56514;51.816;-0.026;2022-10-16T06:30:27;100432.19;;;11.00;71.92
69223;BME280;56514;51.816;-0.026;2022-10-16T06:33:12;100427.97;;;10.97;71.46
69223;BME280;56514;51.816;-0.026;2022-10-16T06:36:10;100431.91;;;10.92;71.43
69223;BME280;56514;51.816;-0.026;2022-10-16T06:38:55;100433.94;;;10.88;71.52
69223;BME280;56514;51.816;-0.026;2022-10-16T06:41:40;100437.41;;;10.89;71.32
69223;BME280;56514;51.816;-0.026;2022-10-16T06:44:25;100437.53;;;10.87;71.55
69223;BME280;56514;51.816;-0.026;2022-10-16T06:47:10;100440.28;;;10.86;71.01
69223;BME280;56514;51.816;-0.026;2022-10-16T06:49:55;100449.06;;;10.86;71.29
69223;BME280;56514;51.816;-0.026;2022-10-16T06:52:40;100456.97;;;10.86;71.03
69223;BME280;56514;51.816;-0.026;2022-10-16T06:55:25;100451.56;;;10.88;71.16
69223;BME280;56514;51.816;-0.026;2022-10-16T06:58:10;100459.38;;;10.89;71.24
69223;BME280;56514;51.816;-0.026;2022-10-16T07:00:55;100459.97;;;10.93;71.02
69223;BME280;56514;51.816;-0.026;2022-10-16T07:03:43;100476.44;;;10.96;71.13
69223;BME280;56514;51.816;-0.026;2022-10-16T07:06:31;100482.22;;;11.01;70.91
69223;BME280;56514;51.816;-0.026;2022-10-16T07:09:17;100481.78;;;11.07;71.08
69223;BME280;56514;51.816;-0.026;2022-10-16T07:12:02;100490.31;;;11.11;71.16
69223;BME280;56514;51.816;-0.026;2022-10-16T07:14:49;100497.91;;;11.15;71.32
69223;BME280;56514;51.816;-0.026;2022-10-16T07:17:36;100491.53;;;11.18;71.26
69223;BME280;56514;51.816;-0.026;2022-10-16T07:20:21;100501.03;;;11.20;71.61
69223;BME280;56514;51.816;-0.026;2022-10-16T07:23:06;100502.88;;;11.31;71.68
69223;BME280;56514;51.816;-0.026;2022-10-16T07:25:55;100508.53;;;11.37;71.33
69223;BME280;56514;51.816;-0.026;2022-10-16T07:28:42;100516.56;;;11.59;71.21
69223;BME280;56514;51.816;-0.026;2022-10-16T07:31:28;100520.88;;;11.95;70.42
69223;BME280;56514;51.816;-0.026;2022-10-16T07:34:14;100525.56;;;12.02;69.45
69223;BME280;56514;51.816;-0.026;2022-10-16T07:36:59;100527.84;;;12.07;69.68
69223;BME280;56514;51.816;-0.026;2022-10-16T07:39:47;100531.13;;;12.55;69.22
69223;BME280;56514;51.816;-0.026;2022-10-16T07:42:32;100540.38;;;12.71;67.42
69223;BME280;56514;51.816;-0.026;2022-10-16T07:45:19;100548.31;;;12.60;67.06
69223;BME280;56514;51.816;-0.026;2022-10-16T07:48:07;100548.94;;;12.42;67.50
69223;BME280;56514;51.816;-0.026;2022-10-16T07:50:56;100559.03;;;12.36;67.85
69223;BME280;56514;51.816;-0.026;2022-10-16T07:53:41;100556.16;;;12.39;67.77
69223;BME280;56514;51.816;-0.026;2022-10-16T07:56:26;100551.81;;;12.38;67.68
69223;BME280;56514;51.816;-0.026;2022-10-16T07:59:11;100560.94;;;12.46;67.35
69223;BME280;56514;51.816;-0.026;2022-10-16T08:01:56;100554.31;;;12.51;67.11
69223;BME280;56514;51.816;-0.026;2022-10-16T08:04:41;100558.91;;;12.60;66.86
69223;BME280;56514;51.816;-0.026;2022-10-16T08:07:25;100573.81;;;12.61;67.20
69223;BME280;56514;51.816;-0.026;2022-10-16T08:10:16;100575.50;;;12.73;66.47
69223;BME280;56514;51.816;-0.026;2022-10-16T08:13:02;100583.09;;;12.89;65.69
69223;BME280;56514;51.816;-0.026;2022-10-16T08:15:47;100582.84;;;12.92;65.76
69223;BME280;56514;51.816;-0.026;2022-10-16T08:18:31;100584.66;;;13.02;65.16
69223;BME280;56514;51.816;-0.026;2022-10-16T08:21:19;100585.47;;;13.03;65.45
69223;BME280;56514;51.816;-0.026;2022-10-16T08:24:04;100590.50;;;13.17;64.79
69223;BME280;56514;51.816;-0.026;2022-10-16T08:26:49;100589.53;;;13.29;63.93
69223;BME280;56514;51.816;-0.026;2022-10-16T08:29:34;100599.63;;;13.35;63.81
69223;BME280;56514;51.816;-0.026;2022-10-16T08:32:22;100598.28;;;13.40;63.70
69223;BME280;56514;51.816;-0.026;2022-10-16T08:35:08;100601.34;;;13.56;62.79
69223;BME280;56514;51.816;-0.026;2022-10-16T08:37:54;100610.88;;;13.59;62.92
69223;BME280;56514;51.816;-0.026;2022-10-16T08:40:39;100610.16;;;13.57;63.23
69223;BME280;56514;51.816;-0.026;2022-10-16T08:50:08;100628.59;;;13.90;61.94
69223;BME280;56514;51.816;-0.026;2022-10-16T08:52:54;100634.94;;;13.98;61.86
69223;BME280;56514;51.816;-0.026;2022-10-16T08:55:50;100640.63;;;13.94;62.28
69223;BME280;56514;51.816;-0.026;2022-10-16T08:58:35;100641.81;;;14.01;62.70
69223;BME280;56514;51.816;-0.026;2022-10-16T09:01:23;100656.66;;;14.24;61.43
69223;BME280;56514;51.816;-0.026;2022-10-16T09:04:44;100654.34;;;14.31;61.30
69223;BME280;56514;51.816;-0.026;2022-10-16T09:08:00;100659.69;;;14.40;61.03
69223;BME280;56514;51.816;-0.026;2022-10-16T09:17:01;100657.88;;;14.61;60.44
69223;BME280;56514;51.816;-0.026;2022-10-16T09:23:38;100666.28;;;14.66;60.32
69223;BME280;56514;51.816;-0.026;2022-10-16T09:26:23;100670.28;;;14.81;59.88
69223;BME280;56514;51.816;-0.026;2022-10-16T09:29:16;100680.25;;;14.89;59.29
69223;BME280;56514;51.816;-0.026;2022-10-16T09:32:11;100688.06;;;14.90;60.02
69223;BME280;56514;51.816;-0.026;2022-10-16T09:34:57;100690.00;;;15.09;58.75
69223;BME280;56514;51.816;-0.026;2022-10-16T09:37:43;100689.84;;;15.10;59.05
69223;BME280;56514;51.816;-0.026;2022-10-16T09:40:36;100686.53;;;15.18;58.67
69223;BME280;56514;51.816;-0.026;2022-10-16T09:43:27;100681.78;;;15.21;58.71
69223;BME280;56514;51.816;-0.026;2022-10-16T09:46:26;100676.09;;;15.35;58.09
69223;BME280;56514;51.816;-0.026;2022-10-16T09:49:23;100688.69;;;15.33;58.59
69223;BME280;56514;51.816;-0.026;2022-10-16T09:52:14;100680.38;;;15.47;57.86
69223;BME280;56514;51.816;-0.026;2022-10-16T09:55:09;100672.41;;;15.57;57.35
69223;BME280;56514;51.816;-0.026;2022-10-16T09:57:57;100674.94;;;15.58;57.99
69223;BME280;56514;51.816;-0.026;2022-10-16T10:00:48;100678.19;;;15.71;57.41
69223;BME280;56514;51.816;-0.026;2022-10-16T10:03:39;100680.28;;;15.77;57.14
69223;BME280;56514;51.816;-0.026;2022-10-16T10:06:36;100685.19;;;15.92;55.98
69223;BME280;56514;51.816;-0.026;2022-10-16T10:09:33;100676.94;;;15.95;56.08
69223;BME280;56514;51.816;-0.026;2022-10-16T10:12:28;100677.22;;;16.11;55.63
69223;BME280;56514;51.816;-0.026;2022-10-16T10:15:16;100682.09;;;16.15;55.37
69223;BME280;56514;51.816;-0.026;2022-10-16T10:18:19;100681.97;;;16.17;55.69
69223;BME280;56514;51.816;-0.026;2022-10-16T10:21:14;100690.25;;;16.33;54.63
69223;BME280;56514;51.816;-0.026;2022-10-16T10:24:00;100691.91;;;16.34;54.22
69223;BME280;56514;51.816;-0.026;2022-10-16T10:32:54;100699.34;;;16.59;52.10
69223;BME280;56514;51.816;-0.026;2022-10-16T10:36:32;100703.03;;;16.48;53.28
69223;BME280;56514;51.816;-0.026;2022-10-16T10:38:57;100696.28;;;16.54;53.00
69223;BME280;56514;51.816;-0.026;2022-10-16T10:44:59;100688.78;;;16.76;53.18
69223;BME280;56514;51.816;-0.026;2022-10-16T10:48:20;100688.19;;;16.92;54.01
69223;BME280;56514;51.816;-0.026;2022-10-16T10:51:20;100694.56;;;17.08;51.93
69223;BME280;56514;51.816;-0.026;2022-10-16T10:54:19;100681.38;;;17.16;51.51
69223;BME280;56514;51.816;-0.026;2022-10-16T10:57:35;100685.06;;;17.06;51.87
69223;BME280;56514;51.816;-0.026;2022-10-16T11:06:57;100689.94;;;17.10;52.30
69223;BME280;56514;51.816;-0.026;2022-10-16T11:09:47;100700.06;;;17.34;52.09
69223;BME280;56514;51.816;-0.026;2022-10-16T11:12:41;100688.75;;;17.59;50.34
69223;BME280;56514;51.816;-0.026;2022-10-16T11:15:32;100682.81;;;17.65;50.57
69223;BME280;56514;51.816;-0.026;2022-10-16T11:18:27;100683.31;;;17.78;48.93
69223;BME280;56514;51.816;-0.026;2022-10-16T11:21:18;100686.19;;;17.67;49.69
69223;BME280;56514;51.816;-0.026;2022-10-16T11:26:50;100687.59;;;17.62;48.83
69223;BME280;56514;51.816;-0.026;2022-10-16T11:29:45;100676.41;;;17.58;48.67
69223;BME280;56514;51.816;-0.026;2022-10-16T11:35:41;100676.53;;;17.84;49.79
69223;BME280;56514;51.816;-0.026;2022-10-16T11:44:34;100687.47;;;18.33;49.18
69223;BME280;56514;51.816;-0.026;2022-10-16T11:47:45;100697.25;;;18.42;48.99
69223;BME280;56514;51.816;-0.026;2022-10-16T11:54:14;100688.84;;;18.55;47.23
69223;BME280;56514;51.816;-0.026;2022-10-16T11:57:18;100686.03;;;18.56;48.05
69223;BME280;56514;51.816;-0.026;2022-10-16T12:00:27;100692.38;;;18.81;48.82
69223;BME280;56514;51.816;-0.026;2022-10-16T12:06:20;100689.69;;;19.06;47.32
69223;BME280;56514;51.816;-0.026;2022-10-16T12:09:31;100684.06;;;19.17;47.67
69223;BME280;56514;51.816;-0.026;2022-10-16T12:12:28;100685.22;;;19.41;47.94
69223;BME280;56514;51.816;-0.026;2022-10-16T12:15:27;100679.28;;;19.71;47.28
69223;BME280;56514;51.816;-0.026;2022-10-16T12:18:23;100689.53;;;19.83;43.90
69223;BME280;56514;51.816;-0.026;2022-10-16T12:21:10;100695.25;;;19.47;45.02
69223;BME280;56514;51.816;-0.026;2022-10-16T12:24:00;100689.34;;;19.35;45.50
69223;BME280;56514;51.816;-0.026;2022-10-16T12:26:49;100685.56;;;19.46;44.96
69223;BME280;56514;51.816;-0.026;2022-10-16T12:29:40;100683.16;;;19.76;43.30
69223;BME280;56514;51.816;-0.026;2022-10-16T12:32:32;100688.31;;;19.70;43.87
69223;BME280;56514;51.816;-0.026;2022-10-16T12:35:23;100693.06;;;20.00;45.01
69223;BME280;56514;51.816;-0.026;2022-10-16T12:38:34;100685.44;;;20.29;43.13
69223;BME280;56514;51.816;-0.026;2022-10-16T12:41:31;100692.78;;;20.35;43.26
69223;BME280;56514;51.816;-0.026;2022-10-16T12:44:25;100687.44;;;20.43;42.28
69223;BME280;56514;51.816;-0.026;2022-10-16T12:47:50;100686.44;;;20.52;42.76
69223;BME280;56514;51.816;-0.026;2022-10-16T12:50:38;100691.25;;;20.88;42.70
69223;BME280;56514;51.816;-0.026;2022-10-16T12:53:25;100683.91;;;21.37;42.06
69223;BME280;56514;51.816;-0.026;2022-10-16T12:56:49;100671.66;;;21.65;38.88
69223;BME280;56514;51.816;-0.026;2022-10-16T13:05:55;100686.63;;;21.98;40.40
69223;BME280;56514;51.816;-0.026;2022-10-16T13:14:51;100674.00;;;22.44;39.70
69223;BME280;56514;51.816;-0.026;2022-10-16T13:20:40;100664.66;;;23.06;38.98
69223;BME280;56514;51.816;-0.026;2022-10-16T13:23:37;100680.41;;;23.24;38.28
69223;BME280;56514;51.816;-0.026;2022-10-16T13:26:39;100676.69;;;22.81;38.56
69223;BME280;56514;51.816;-0.026;2022-10-16T13:29:31;100675.28;;;22.33;38.38
69223;BME280;56514;51.816;-0.026;2022-10-16T13:32:19;100680.09;;;21.93;39.23
69223;BME280;56514;51.816;-0.026;2022-10-16T13:35:19;100670.66;;;21.74;39.41
69223;BME280;56514;51.816;-0.026;2022-10-16T13:38:12;100678.38;;;21.39;39.89
69223;BME280;56514;51.816;-0.026;2022-10-16T13:41:12;100682.72;;;21.40;40.44
69223;BME280;56514;51.816;-0.026;2022-10-16T13:43:58;100675.31;;;21.50;39.94
69223;BME280;56514;51.816;-0.026;2022-10-16T13:46:43;100681.25;;;21.68;40.43
69223;BME280;56514;51.816;-0.026;2022-10-16T13:49:28;100679.56;;;22.42;39.33
69223;BME280;56514;51.816;-0.026;2022-10-16T13:52:20;100668.06;;;23.58;38.54
69223;BME280;56514;51.816;-0.026;2022-10-16T13:55:17;100666.13;;;24.72;36.54
69223;BME280;56514;51.816;-0.026;2022-10-16T13:58:12;100663.56;;;25.26;36.08
69223;BME280;56514;51.816;-0.026;2022-10-16T14:01:15;100654.69;;;25.86;34.78
69223;BME280;56514;51.816;-0.026;2022-10-16T14:04:08;100645.41;;;26.27;33.63
69223;BME280;56514;51.816;-0.026;2022-10-16T14:06:53;100647.47;;;26.97;32.79
69223;BME280;56514;51.816;-0.026;2022-10-16T14:09:38;100640.72;;;27.32;32.11
69223;BME280;56514;51.816;-0.026;2022-10-16T14:12:24;100641.00;;;27.04;32.93
69223;BME280;56514;51.816;-0.026;2022-10-16T14:15:18;100648.31;;;26.78;33.01
69223;BME280;56514;51.816;-0.026;2022-10-16T14:18:04;100633.13;;;26.70;33.48
69223;BME280;56514;51.816;-0.026;2022-10-16T14:20:49;100636.91;;;26.63;33.15
69223;BME280;56514;51.816;-0.026;2022-10-16T14:23:39;100641.22;;;26.38;33.20
69223;BME280;56514;51.816;-0.026;2022-10-16T14:26:28;100642.50;;;26.35;33.31
69223;BME280;56514;51.816;-0.026;2022-10-16T14:29:15;100643.53;;;26.08;33.59
69223;BME280;56514;51.816;-0.026;2022-10-16T14:32:05;100645.28;;;25.68;34.56
69223;BME280;56514;51.816;-0.026;2022-10-16T14:34:54;100639.69;;;25.29;35.69
69223;BME280;56514;51.816;-0.026;2022-10-16T14:37:39;100644.31;;;25.01;35.89
69223;BME280;56514;51.816;-0.026;2022-10-16T14:40:26;100639.78;;;24.74;36.51
69223;BME280;56514;51.816;-0.026;2022-10-16T14:43:21;100637.19;;;24.39;37.00
69223;BME280;56514;51.816;-0.026;2022-10-16T14:46:16;100633.19;;;24.07;37.36
69223;BME280;56514;51.816;-0.026;2022-10-16T14:49:12;100632.75;;;23.68;37.84
69223;BME280;56514;51.816;-0.026;2022-10-16T14:51:59;100628.41;;;23.31;38.34
69223;BME280;56514;51.816;-0.026;2022-10-16T14:54:48;100637.59;;;22.93;39.13
69223;BME280;56514;51.816;-0.026;2022-10-16T14:57:36;100635.59;;;22.58;39.72
69223;BME280;56514;51.816;-0.026;2022-10-16T15:00:23;100642.91;;;22.27;40.46
69223;BME280;56514;51.816;-0.026;2022-10-16T15:03:08;100645.09;;;21.86;41.05
69223;BME280;56514;51.816;-0.026;2022-10-16T15:05:56;100647.25;;;21.52;41.63
69223;BME280;56514;51.816;-0.026;2022-10-16T15:08:42;100646.03;;;21.24;42.69
69223;BME280;56514;51.816;-0.026;2022-10-16T15:11:27;100648.53;;;20.95;43.34
69223;BME280;56514;51.816;-0.026;2022-10-16T15:14:12;100651.88;;;20.65;43.98
69223;BME280;56514;51.816;-0.026;2022-10-16T15:16:58;100650.09;;;20.33;45.00
69223;BME280;56514;51.816;-0.026;2022-10-16T15:19:43;100650.88;;;20.10;45.47
69223;BME280;56514;51.816;-0.026;2022-10-16T15:22:28;100649.38;;;19.91;46.43
69223;BME280;56514;51.816;-0.026;2022-10-16T15:25:33;100638.78;;;19.66;46.89
69223;BME280;56514;51.816;-0.026;2022-10-16T15:28:23;100646.41;;;19.45;47.58
69223;BME280;56514;51.816;-0.026;2022-10-16T15:31:09;100645.88;;;19.33;47.85
69223;BME280;56514;51.816;-0.026;2022-10-16T15:33:54;100645.28;;;19.21;48.37
69223;BME280;56514;51.816;-0.026;2022-10-16T15:36:42;100644.91;;;19.08;48.63
69223;BME280;56514;51.816;-0.026;2022-10-16T15:39:27;100649.72;;;18.97;48.94
69223;BME280;56514;51.816;-0.026;2022-10-16T15:42:12;100643.78;;;18.85;49.53
69223;BME280;56514;51.816;-0.026;2022-10-16T15:44:58;100645.91;;;18.74;49.83
69223;BME280;56514;51.816;-0.026;2022-10-16T15:47:43;100640.66;;;18.64;50.74
69223;BME280;56514;51.816;-0.026;2022-10-16T15:50:30;100631.75;;;18.56;50.57
69223;BME280;56514;51.816;-0.026;2022-10-16T15:53:15;100627.50;;;18.45;51.30
69223;BME280;56514;51.816;-0.026;2022-10-16T15:56:05;100632.25;;;18.34;51.26
69223;BME280;56514;51.816;-0.026;2022-10-16T15:58:54;100629.97;;;18.21;52.25